sensor_id;sensor_type;location;lat;lon;timestamp;P1;durP1;ratioP1;P2;durP2;ratioP2
54831;SDS011;40730;53.068;6.572;2022-10-16T00:01:33;6.82;;;0.60;;
54831;SDS011;40730;53.068;6.572;2022-10-16T00:03:59;3.78;;;0.60;;
54831;SDS011;40730;53.068;6.572;2022-10-16T00:06:26;5.72;;;0.88;;
54831;SDS011;40730;53.068;6.572;2022-10-16T00:08:53;4.28;;;0.50;;
54831;SDS011;40730;53.068;6.572;2022-10-16T00:11:20;4.07;;;0.60;;
54831;SDS011;40730;53.068;6.572;2022-10-16T00:13:50;10.98;;;0.50;;
54831;SDS011;40730;53.068;6.572;2022-10-16T00:16:19;5.20;;;1.10;;
54831;SDS011;40730;53.068;6.572;2022-10-16T00:18:45;4.57;;;0.43;;
54831;SDS011;40730;53.068;6.572;2022-10-16T00:21:15;7.45;;;1.60;;
54831;SDS011;40730;53.068;6.572;2022-10-16T00:23:44;4.68;;;0.47;;
54831;SDS011;40730;53.068;6.572;2022-10-16T00:26:11;5.90;;;0.70;;
54831;SDS011;40730;53.068;6.572;2022-10-16T00:28:39;4.25;;;1.25;;
54831;SDS011;40730;53.068;6.572;2022-10-16T00:31:06;7.38;;;0.60;;
54831;SDS011;40730;53.068;6.572;2022-10-16T00:33:33;2.10;;;0.45;;
54831;SDS011;40730;53.068;6.572;2022-10-16T00:35:59;5.65;;;0.70;;
54831;SDS011;40730;53.068;6.572;2022-10-16T00:38:25;2.25;;;0.50;;
54831;SDS011;40730;53.068;6.572;2022-10-16T00:40:51;10.90;;;1.67;;
54831;SDS011;40730;53.068;6.572;2022-10-16T00:46:49;6.03;;;0.60;;
54831;SDS011;40730;53.068;6.572;2022-10-16T00:49:06;5.97;;;0.40;;
54831;SDS011;40730;53.068;6.572;2022-10-16T00:51:34;5.07;;;0.75;;
54831;SDS011;40730;53.068;6.572;2022-10-16T00:54:00;4.43;;;0.50;;
54831;SDS011;40730;53.068;6.572;2022-10-16T00:56:28;5.47;;;0.40;;
54831;SDS011;40730;53.068;6.572;2022-10-16T00:58:54;6.32;;;0.40;;
54831;SDS011;40730;53.068;6.572;2022-10-16T01:01:20;2.92;;;0.52;;
54831;SDS011;40730;53.068;6.572;2022-10-16T01:03:46;4.85;;;0.40;;
54831;SDS011;40730;53.068;6.572;2022-10-16T01:14:37;3.40;;;0.88;;
54831;SDS011;40730;53.068;6.572;2022-10-16T01:17:15;4.82;;;0.40;;
54831;SDS011;40730;53.068;6.572;2022-10-16T01:19:59;5.53;;;0.57;;
54831;SDS011;40730;53.068;6.572;2022-10-16T01:22:39;7.80;;;0.40;;
54831;SDS011;40730;53.068;6.572;2022-10-16T01:25:17;5.38;;;0.38;;
54831;SDS011;40730;53.068;6.572;2022-10-16T01:28:05;7.32;;;0.38;;
54831;SDS011;40730;53.068;6.572;2022-10-16T01:30:34;4.70;;;0.50;;
54831;SDS011;40730;53.068;6.572;2022-10-16T01:33:07;3.45;;;0.30;;
54831;SDS011;40730;53.068;6.572;2022-10-16T01:35:43;0.85;;;0.20;;
54831;SDS011;40730;53.068;6.572;2022-10-16T01:38:17;3.85;;;0.40;;
54831;SDS011;40730;53.068;6.572;2022-10-16T01:40:49;5.47;;;0.60;;
54831;SDS011;40730;53.068;6.572;2022-10-16T01:43:19;3.88;;;0.40;;
54831;SDS011;40730;53.068;6.572;2022-10-16T01:45:48;3.65;;;0.20;;
54831;SDS011;40730;53.068;6.572;2022-10-16T01:48:17;2.95;;;0.43;;
54831;SDS011;40730;53.068;6.572;2022-10-16T01:50:44;3.25;;;0.30;;
54831;SDS011;40730;53.068;6.572;2022-10-16T01:53:23;1.25;;;0.30;;
54831;SDS011;40730;53.068;6.572;2022-10-16T01:55:50;3.03;;;0.40;;
54831;SDS011;40730;53.068;6.572;2022-10-16T01:58:19;7.85;;;1.27;;
54831;SDS011;40730;53.068;6.572;2022-10-16T02:00:46;3.30;;;0.30;;
54831;SDS011;40730;53.068;6.572;2022-10-16T02:03:13;2.92;;;0.50;;
54831;SDS011;40730;53.068;6.572;2022-10-16T02:10:45;5.40;;;0.45;;
54831;SDS011;40730;53.068;6.572;2022-10-16T02:15:45;4.53;;;0.40;;
54831;SDS011;40730;53.068;6.572;2022-10-16T02:18:10;2.15;;;0.40;;
54831;SDS011;40730;53.068;6.572;2022-10-16T02:20:38;3.00;;;0.30;;
54831;SDS011;40730;53.068;6.572;2022-10-16T02:23:14;1.50;;;0.30;;
54831;SDS011;40730;53.068;6.572;2022-10-16T02:25:47;5.28;;;0.30;;
54831;SDS011;40730;53.068;6.572;2022-10-16T02:28:16;3.60;;;0.30;;
54831;SDS011;40730;53.068;6.572;2022-10-16T02:30:48;4.90;;;0.40;;
54831;SDS011;40730;53.068;6.572;2022-10-16T02:33:17;6.03;;;0.57;;
54831;SDS011;40730;53.068;6.572;2022-10-16T02:35:46;3.05;;;0.25;;
54831;SDS011;40730;53.068;6.572;2022-10-16T02:38:14;2.65;;;0.30;;
54831;SDS011;40730;53.068;6.572;2022-10-16T02:40:41;4.65;;;0.30;;
54831;SDS011;40730;53.068;6.572;2022-10-16T02:43:07;2.63;;;0.40;;
54831;SDS011;40730;53.068;6.572;2022-10-16T02:45:33;4.15;;;0.40;;
54831;SDS011;40730;53.068;6.572;2022-10-16T02:47:59;1.23;;;0.30;;
54831;SDS011;40730;53.068;6.572;2022-10-16T02:50:25;1.83;;;0.30;;
54831;SDS011;40730;53.068;6.572;2022-10-16T02:52:50;1.80;;;0.30;;
54831;SDS011;40730;53.068;6.572;2022-10-16T02:55:16;2.03;;;0.30;;
54831;SDS011;40730;53.068;6.572;2022-10-16T02:57:42;1.92;;;0.20;;
54831;SDS011;40730;53.068;6.572;2022-10-16T03:00:08;2.65;;;0.50;;
54831;SDS011;40730;53.068;6.572;2022-10-16T03:02:36;2.97;;;0.45;;
54831;SDS011;40730;53.068;6.572;2022-10-16T03:05:02;3.28;;;0.35;;
54831;SDS011;40730;53.068;6.572;2022-10-16T03:07:28;3.78;;;0.40;;
54831;SDS011;40730;53.068;6.572;2022-10-16T03:09:54;3.35;;;1.15;;
54831;SDS011;40730;53.068;6.572;2022-10-16T03:12:20;2.63;;;0.30;;
54831;SDS011;40730;53.068;6.572;2022-10-16T03:14:46;7.65;;;0.40;;
54831;SDS011;40730;53.068;6.572;2022-10-16T03:17:12;3.17;;;0.30;;
54831;SDS011;40730;53.068;6.572;2022-10-16T03:19:38;3.90;;;0.30;;
54831;SDS011;40730;53.068;6.572;2022-10-16T03:22:04;2.55;;;0.30;;
54831;SDS011;40730;53.068;6.572;2022-10-16T03:24:29;2.92;;;0.52;;
54831;SDS011;40730;53.068;6.572;2022-10-16T03:26:55;4.40;;;0.40;;
54831;SDS011;40730;53.068;6.572;2022-10-16T03:29:21;1.75;;;0.30;;
54831;SDS011;40730;53.068;6.572;2022-10-16T03:31:46;2.65;;;0.40;;
54831;SDS011;40730;53.068;6.572;2022-10-16T03:34:14;1.30;;;0.40;;
54831;SDS011;40730;53.068;6.572;2022-10-16T03:36:40;3.60;;;0.30;;
54831;SDS011;40730;53.068;6.572;2022-10-16T03:39:05;2.60;;;0.35;;
54831;SDS011;40730;53.068;6.572;2022-10-16T03:41:31;1.33;;;0.30;;
54831;SDS011;40730;53.068;6.572;2022-10-16T03:43:56;4.10;;;0.47;;
54831;SDS011;40730;53.068;6.572;2022-10-16T03:46:22;5.20;;;0.30;;
54831;SDS011;40730;53.068;6.572;2022-10-16T03:48:47;4.22;;;0.50;;
54831;SDS011;40730;53.068;6.572;2022-10-16T03:51:13;3.13;;;0.38;;
54831;SDS011;40730;53.068;6.572;2022-10-16T03:53:38;2.53;;;0.40;;
54831;SDS011;40730;53.068;6.572;2022-10-16T03:56:04;5.15;;;0.70;;
54831;SDS011;40730;53.068;6.572;2022-10-16T03:58:30;2.67;;;0.45;;
54831;SDS011;40730;53.068;6.572;2022-10-16T04:00:55;3.00;;;0.40;;
54831;SDS011;40730;53.068;6.572;2022-10-16T04:03:21;1.42;;;0.40;;
54831;SDS011;40730;53.068;6.572;2022-10-16T04:05:47;3.83;;;0.35;;
54831;SDS011;40730;53.068;6.572;2022-10-16T04:08:13;1.90;;;0.60;;
54831;SDS011;40730;53.068;6.572;2022-10-16T04:10:39;1.92;;;0.40;;
54831;SDS011;40730;53.068;6.572;2022-10-16T04:13:05;1.58;;;0.40;;
54831;SDS011;40730;53.068;6.572;2022-10-16T04:15:30;4.30;;;1.23;;
54831;SDS011;40730;53.068;6.572;2022-10-16T04:17:56;4.32;;;0.40;;
54831;SDS011;40730;53.068;6.572;2022-10-16T04:20:21;3.08;;;0.40;;
54831;SDS011;40730;53.068;6.572;2022-10-16T04:22:47;4.63;;;1.05;;
54831;SDS011;40730;53.068;6.572;2022-10-16T04:25:13;2.45;;;0.50;;
54831;SDS011;40730;53.068;6.572;2022-10-16T04:27:38;1.38;;;0.52;;
54831;SDS011;40730;53.068;6.572;2022-10-16T04:30:04;4.32;;;0.30;;
54831;SDS011;40730;53.068;6.572;2022-10-16T04:32:30;3.78;;;0.65;;
54831;SDS011;40730;53.068;6.572;2022-10-16T04:34:56;4.88;;;0.57;;
54831;SDS011;40730;53.068;6.572;2022-10-16T04:37:25;3.30;;;0.63;;
54831;SDS011;40730;53.068;6.572;2022-10-16T04:39:52;3.42;;;0.35;;
54831;SDS011;40730;53.068;6.572;2022-10-16T04:42:18;4.40;;;1.13;;
54831;SDS011;40730;53.068;6.572;2022-10-16T04:44:44;5.28;;;0.40;;
54831;SDS011;40730;53.068;6.572;2022-10-16T04:47:09;1.60;;;0.60;;
54831;SDS011;40730;53.068;6.572;2022-10-16T04:49:35;5.00;;;0.75;;
54831;SDS011;40730;53.068;6.572;2022-10-16T04:52:00;2.00;;;0.50;;
54831;SDS011;40730;53.068;6.572;2022-10-16T04:54:26;2.75;;;0.60;;
54831;SDS011;40730;53.068;6.572;2022-10-16T04:56:52;3.83;;;0.60;;
54831;SDS011;40730;53.068;6.572;2022-10-16T04:59:18;2.90;;;0.60;;
54831;SDS011;40730;53.068;6.572;2022-10-16T05:01:44;4.93;;;0.63;;
54831;SDS011;40730;53.068;6.572;2022-10-16T05:04:10;3.65;;;0.82;;
54831;SDS011;40730;53.068;6.572;2022-10-16T05:06:37;2.35;;;0.50;;
54831;SDS011;40730;53.068;6.572;2022-10-16T05:09:04;3.40;;;0.68;;
54831;SDS011;40730;53.068;6.572;2022-10-16T05:11:30;3.17;;;0.65;;
54831;SDS011;40730;53.068;6.572;2022-10-16T05:13:56;4.35;;;0.90;;
54831;SDS011;40730;53.068;6.572;2022-10-16T05:16:21;2.35;;;0.90;;
54831;SDS011;40730;53.068;6.572;2022-10-16T05:18:47;3.25;;;0.65;;
54831;SDS011;40730;53.068;6.572;2022-10-16T05:21:13;3.05;;;0.80;;
54831;SDS011;40730;53.068;6.572;2022-10-16T05:23:38;1.48;;;0.65;;
54831;SDS011;40730;53.068;6.572;2022-10-16T05:26:04;3.65;;;0.80;;
54831;SDS011;40730;53.068;6.572;2022-10-16T05:28:29;5.00;;;0.70;;
54831;SDS011;40730;53.068;6.572;2022-10-16T05:30:56;5.32;;;0.55;;
54831;SDS011;40730;53.068;6.572;2022-10-16T05:33:23;6.15;;;0.60;;
54831;SDS011;40730;53.068;6.572;2022-10-16T05:35:50;4.78;;;0.80;;
54831;SDS011;40730;53.068;6.572;2022-10-16T05:38:17;2.28;;;0.95;;
54831;SDS011;40730;53.068;6.572;2022-10-16T05:40:43;3.80;;;0.70;;
54831;SDS011;40730;53.068;6.572;2022-10-16T05:43:16;2.10;;;0.68;;
54831;SDS011;40730;53.068;6.572;2022-10-16T05:45:41;4.60;;;0.98;;
54831;SDS011;40730;53.068;6.572;2022-10-16T05:48:07;2.58;;;0.90;;
54831;SDS011;40730;53.068;6.572;2022-10-16T05:50:32;7.68;;;0.80;;
54831;SDS011;40730;53.068;6.572;2022-10-16T05:52:58;4.63;;;0.80;;
54831;SDS011;40730;53.068;6.572;2022-10-16T05:55:23;4.15;;;0.70;;
54831;SDS011;40730;53.068;6.572;2022-10-16T05:57:49;4.07;;;0.85;;
54831;SDS011;40730;53.068;6.572;2022-10-16T06:00:14;4.40;;;0.80;;
54831;SDS011;40730;53.068;6.572;2022-10-16T06:02:40;2.08;;;0.90;;
54831;SDS011;40730;53.068;6.572;2022-10-16T06:05:06;2.75;;;0.77;;
54831;SDS011;40730;53.068;6.572;2022-10-16T06:07:34;3.95;;;0.90;;
54831;SDS011;40730;53.068;6.572;2022-10-16T06:10:00;2.85;;;0.88;;
54831;SDS011;40730;53.068;6.572;2022-10-16T06:12:26;3.63;;;0.98;;
54831;SDS011;40730;53.068;6.572;2022-10-16T06:14:52;5.43;;;1.08;;
54831;SDS011;40730;53.068;6.572;2022-10-16T06:17:17;5.32;;;1.00;;
54831;SDS011;40730;53.068;6.572;2022-10-16T06:19:43;4.10;;;1.00;;
54831;SDS011;40730;53.068;6.572;2022-10-16T06:22:09;4.53;;;0.80;;
54831;SDS011;40730;53.068;6.572;2022-10-16T06:24:34;6.15;;;1.55;;
54831;SDS011;40730;53.068;6.572;2022-10-16T06:27:00;5.72;;;1.08;;
54831;SDS011;40730;53.068;6.572;2022-10-16T06:29:25;6.43;;;1.38;;
54831;SDS011;40730;53.068;6.572;2022-10-16T06:31:51;4.00;;;0.95;;
54831;SDS011;40730;53.068;6.572;2022-10-16T06:34:17;5.35;;;1.13;;
54831;SDS011;40730;53.068;6.572;2022-10-16T06:36:43;4.45;;;0.90;;
54831;SDS011;40730;53.068;6.572;2022-10-16T06:39:09;7.78;;;0.75;;
54831;SDS011;40730;53.068;6.572;2022-10-16T06:41:34;4.95;;;1.00;;
54831;SDS011;40730;53.068;6.572;2022-10-16T06:44:00;4.03;;;1.10;;
54831;SDS011;40730;53.068;6.572;2022-10-16T06:46:26;2.65;;;0.88;;
54831;SDS011;40730;53.068;6.572;2022-10-16T06:48:52;2.67;;;0.60;;
54831;SDS011;40730;53.068;6.572;2022-10-16T06:51:19;7.82;;;0.98;;
54831;SDS011;40730;53.068;6.572;2022-10-16T06:53:47;5.10;;;0.85;;
54831;SDS011;40730;53.068;6.572;2022-10-16T06:56:21;3.58;;;0.93;;
54831;SDS011;40730;53.068;6.572;2022-10-16T06:58:48;3.97;;;0.75;;
54831;SDS011;40730;53.068;6.572;2022-10-16T07:01:15;2.75;;;0.70;;
54831;SDS011;40730;53.068;6.572;2022-10-16T07:03:43;3.20;;;0.90;;
54831;SDS011;40730;53.068;6.572;2022-10-16T07:06:10;5.20;;;1.23;;
54831;SDS011;40730;53.068;6.572;2022-10-16T07:08:38;6.88;;;1.83;;
54831;SDS011;40730;53.068;6.572;2022-10-16T07:11:05;4.40;;;0.63;;
54831;SDS011;40730;53.068;6.572;2022-10-16T07:13:36;2.80;;;0.68;;
54831;SDS011;40730;53.068;6.572;2022-10-16T07:16:06;4.32;;;1.08;;
54831;SDS011;40730;53.068;6.572;2022-10-16T07:18:33;2.88;;;0.77;;
54831;SDS011;40730;53.068;6.572;2022-10-16T07:21:03;3.10;;;0.80;;
54831;SDS011;40730;53.068;6.572;2022-10-16T07:23:32;3.88;;;0.77;;
54831;SDS011;40730;53.068;6.572;2022-10-16T07:25:58;2.75;;;0.88;;
54831;SDS011;40730;53.068;6.572;2022-10-16T07:28:24;4.53;;;0.82;;
54831;SDS011;40730;53.068;6.572;2022-10-16T07:30:50;5.22;;;1.13;;
54831;SDS011;40730;53.068;6.572;2022-10-16T07:33:15;3.70;;;0.80;;
54831;SDS011;40730;53.068;6.572;2022-10-16T07:35:50;2.58;;;0.70;;
54831;SDS011;40730;53.068;6.572;2022-10-16T07:38:19;6.90;;;0.90;;
54831;SDS011;40730;53.068;6.572;2022-10-16T07:40:45;4.32;;;1.08;;
54831;SDS011;40730;53.068;6.572;2022-10-16T07:43:11;1.48;;;0.50;;
54831;SDS011;40730;53.068;6.572;2022-10-16T07:45:37;2.47;;;0.77;;
54831;SDS011;40730;53.068;6.572;2022-10-16T07:48:11;2.95;;;0.95;;
54831;SDS011;40730;53.068;6.572;2022-10-16T07:50:36;6.32;;;0.90;;
54831;SDS011;40730;53.068;6.572;2022-10-16T07:53:03;4.07;;;1.08;;
54831;SDS011;40730;53.068;6.572;2022-10-16T07:55:28;3.15;;;0.50;;
54831;SDS011;40730;53.068;6.572;2022-10-16T07:57:54;3.95;;;0.88;;
54831;SDS011;40730;53.068;6.572;2022-10-16T08:00:20;3.40;;;1.17;;
54831;SDS011;40730;53.068;6.572;2022-10-16T08:02:45;2.20;;;0.75;;
54831;SDS011;40730;53.068;6.572;2022-10-16T08:05:11;5.03;;;0.98;;
54831;SDS011;40730;53.068;6.572;2022-10-16T08:07:36;2.33;;;0.30;;
54831;SDS011;40730;53.068;6.572;2022-10-16T08:10:02;2.25;;;0.47;;
54831;SDS011;40730;53.068;6.572;2022-10-16T08:12:28;4.95;;;0.50;;
54831;SDS011;40730;53.068;6.572;2022-10-16T08:14:54;2.13;;;0.30;;
54831;SDS011;40730;53.068;6.572;2022-10-16T08:17:19;2.42;;;0.57;;
54831;SDS011;40730;53.068;6.572;2022-10-16T08:19:46;3.17;;;0.30;;
54831;SDS011;40730;53.068;6.572;2022-10-16T08:22:12;4.95;;;0.40;;
54831;SDS011;40730;53.068;6.572;2022-10-16T08:24:38;4.85;;;0.30;;
54831;SDS011;40730;53.068;6.572;2022-10-16T08:27:04;6.53;;;0.38;;
54831;SDS011;40730;53.068;6.572;2022-10-16T08:29:29;1.02;;;0.20;;
54831;SDS011;40730;53.068;6.572;2022-10-16T08:31:55;2.60;;;0.30;;
54831;SDS011;40730;53.068;6.572;2022-10-16T08:34:21;0.60;;;0.20;;
54831;SDS011;40730;53.068;6.572;2022-10-16T08:36:46;2.55;;;0.45;;
54831;SDS011;40730;53.068;6.572;2022-10-16T08:39:12;3.28;;;0.30;;
54831;SDS011;40730;53.068;6.572;2022-10-16T08:41:52;1.70;;;0.28;;
54831;SDS011;40730;53.068;6.572;2022-10-16T08:44:47;1.90;;;0.13;;
54831;SDS011;40730;53.068;6.572;2022-10-16T08:47:43;4.35;;;0.20;;
54831;SDS011;40730;53.068;6.572;2022-10-16T08:50:25;4.53;;;0.20;;
54831;SDS011;40730;53.068;6.572;2022-10-16T08:52:53;3.00;;;0.32;;
54831;SDS011;40730;53.068;6.572;2022-10-16T08:58:18;3.30;;;0.20;;
54831;SDS011;40730;53.068;6.572;2022-10-16T09:00:50;1.65;;;0.20;;
54831;SDS011;40730;53.068;6.572;2022-10-16T09:03:24;2.60;;;0.20;;
54831;SDS011;40730;53.068;6.572;2022-10-16T09:06:13;2.03;;;0.20;;
54831;SDS011;40730;53.068;6.572;2022-10-16T09:11:56;3.40;;;0.30;;
54831;SDS011;40730;53.068;6.572;2022-10-16T09:14:37;4.68;;;0.20;;
54831;SDS011;40730;53.068;6.572;2022-10-16T09:22:36;2.00;;;0.20;;
54831;SDS011;40730;53.068;6.572;2022-10-16T09:25:09;3.65;;;0.30;;
54831;SDS011;40730;53.068;6.572;2022-10-16T09:27:37;3.05;;;0.40;;
54831;SDS011;40730;53.068;6.572;2022-10-16T09:30:26;5.25;;;0.80;;
54831;SDS011;40730;53.068;6.572;2022-10-16T09:32:52;6.15;;;0.50;;
54831;SDS011;40730;53.068;6.572;2022-10-16T09:35:40;3.85;;;0.50;;
54831;SDS011;40730;53.068;6.572;2022-10-16T09:38:21;7.43;;;0.68;;
54831;SDS011;40730;53.068;6.572;2022-10-16T09:40:47;6.20;;;0.43;;
54831;SDS011;40730;53.068;6.572;2022-10-16T09:43:55;4.95;;;0.30;;
54831;SDS011;40730;53.068;6.572;2022-10-16T09:46:07;4.53;;;0.35;;
54831;SDS011;40730;53.068;6.572;2022-10-16T09:48:49;7.32;;;0.32;;
54831;SDS011;40730;53.068;6.572;2022-10-16T09:51:37;5.55;;;0.43;;
54831;SDS011;40730;53.068;6.572;2022-10-16T09:56:34;7.95;;;0.88;;
54831;SDS011;40730;53.068;6.572;2022-10-16T09:59:22;8.05;;;1.10;;
54831;SDS011;40730;53.068;6.572;2022-10-16T10:01:53;6.57;;;0.50;;
54831;SDS011;40730;53.068;6.572;2022-10-16T10:04:20;9.30;;;0.50;;
54831;SDS011;40730;53.068;6.572;2022-10-16T10:06:49;8.80;;;0.95;;
54831;SDS011;40730;53.068;6.572;2022-10-16T10:11:57;9.10;;;0.93;;
54831;SDS011;40730;53.068;6.572;2022-10-16T10:14:36;6.93;;;0.50;;
54831;SDS011;40730;53.068;6.572;2022-10-16T10:17:26;11.27;;;0.68;;
54831;SDS011;40730;53.068;6.572;2022-10-16T10:19:54;7.63;;;0.40;;
54831;SDS011;40730;53.068;6.572;2022-10-16T10:22:26;7.85;;;1.00;;
54831;SDS011;40730;53.068;6.572;2022-10-16T10:33:12;11.45;;;0.80;;
54831;SDS011;40730;53.068;6.572;2022-10-16T10:39:04;8.80;;;0.60;;
54831;SDS011;40730;53.068;6.572;2022-10-16T10:47:19;8.27;;;0.70;;
54831;SDS011;40730;53.068;6.572;2022-10-16T10:52:58;9.10;;;0.93;;
54831;SDS011;40730;53.068;6.572;2022-10-16T11:01:09;10.18;;;0.60;;
54831;SDS011;40730;53.068;6.572;2022-10-16T11:06:16;9.20;;;0.50;;
54831;SDS011;40730;53.068;6.572;2022-10-16T11:08:53;6.90;;;1.02;;
54831;SDS011;40730;53.068;6.572;2022-10-16T11:11:35;9.82;;;0.90;;
54831;SDS011;40730;53.068;6.572;2022-10-16T11:14:08;9.63;;;0.50;;
54831;SDS011;40730;53.068;6.572;2022-10-16T11:22:33;13.48;;;0.93;;
54831;SDS011;40730;53.068;6.572;2022-10-16T11:25:04;9.05;;;0.70;;
54831;SDS011;40730;53.068;6.572;2022-10-16T11:27:55;10.45;;;1.00;;
54831;SDS011;40730;53.068;6.572;2022-10-16T11:30:34;3.85;;;0.40;;
54831;SDS011;40730;53.068;6.572;2022-10-16T11:33:26;11.48;;;0.90;;
54831;SDS011;40730;53.068;6.572;2022-10-16T11:36:08;9.93;;;0.77;;
54831;SDS011;40730;53.068;6.572;2022-10-16T11:42:03;10.80;;;0.95;;
54831;SDS011;40730;53.068;6.572;2022-10-16T11:50:51;10.65;;;0.70;;
54831;SDS011;40730;53.068;6.572;2022-10-16T11:55:57;7.38;;;0.43;;
54831;SDS011;40730;53.068;6.572;2022-10-16T12:09:31;12.98;;;1.50;;
54831;SDS011;40730;53.068;6.572;2022-10-16T12:11:59;5.35;;;0.60;;
54831;SDS011;40730;53.068;6.572;2022-10-16T12:20:12;5.57;;;0.50;;
54831;SDS011;40730;53.068;6.572;2022-10-16T12:22:55;7.80;;;0.63;;
54831;SDS011;40730;53.068;6.572;2022-10-16T12:25:32;7.90;;;0.52;;
54831;SDS011;40730;53.068;6.572;2022-10-16T12:28:21;12.98;;;1.30;;
54831;SDS011;40730;53.068;6.572;2022-10-16T12:30:57;6.93;;;0.50;;
54831;SDS011;40730;53.068;6.572;2022-10-16T12:33:27;12.35;;;0.85;;
54831;SDS011;40730;53.068;6.572;2022-10-16T12:35:55;7.63;;;0.57;;
54831;SDS011;40730;53.068;6.572;2022-10-16T12:40:56;8.63;;;0.60;;
54831;SDS011;40730;53.068;6.572;2022-10-16T12:48:39;6.35;;;0.73;;
54831;SDS011;40730;53.068;6.572;2022-10-16T12:54:55;8.40;;;0.57;;
54831;SDS011;40730;53.068;6.572;2022-10-16T12:56:58;7.85;;;0.65;;
54831;SDS011;40730;53.068;6.572;2022-10-16T13:02:38;12.02;;;1.83;;
54831;SDS011;40730;53.068;6.572;2022-10-16T13:13:36;15.50;;;0.88;;
54831;SDS011;40730;53.068;6.572;2022-10-16T13:27:06;16.02;;;1.30;;
54831;SDS011;40730;53.068;6.572;2022-10-16T13:30:08;12.05;;;0.90;;
54831;SDS011;40730;53.068;6.572;2022-10-16T13:32:43;8.25;;;0.47;;
54831;SDS011;40730;53.068;6.572;2022-10-16T13:35:20;7.43;;;0.60;;
54831;SDS011;40730;53.068;6.572;2022-10-16T13:37:48;14.00;;;0.90;;
54831;SDS011;40730;53.068;6.572;2022-10-16T13:40:18;7.88;;;1.02;;
54831;SDS011;40730;53.068;6.572;2022-10-16T13:42:49;8.60;;;0.82;;
54831;SDS011;40730;53.068;6.572;2022-10-16T13:45:23;8.57;;;0.47;;
54831;SDS011;40730;53.068;6.572;2022-10-16T13:48:00;13.25;;;1.30;;
54831;SDS011;40730;53.068;6.572;2022-10-16T13:50:30;9.00;;;0.60;;
54831;SDS011;40730;53.068;6.572;2022-10-16T13:53:05;6.38;;;0.40;;
54831;SDS011;40730;53.068;6.572;2022-10-16T13:58:12;6.10;;;0.47;;
54831;SDS011;40730;53.068;6.572;2022-10-16T14:00:39;7.72;;;0.63;;
54831;SDS011;40730;53.068;6.572;2022-10-16T14:03:17;8.45;;;0.52;;
54831;SDS011;40730;53.068;6.572;2022-10-16T14:05:48;7.57;;;0.73;;
54831;SDS011;40730;53.068;6.572;2022-10-16T14:08:16;12.75;;;0.77;;
54831;SDS011;40730;53.068;6.572;2022-10-16T14:10:42;9.35;;;1.60;;
54831;SDS011;40730;53.068;6.572;2022-10-16T14:13:13;10.43;;;0.50;;
54831;SDS011;40730;53.068;6.572;2022-10-16T14:15:45;5.28;;;0.40;;
54831;SDS011;40730;53.068;6.572;2022-10-16T14:18:15;7.40;;;0.82;;
54831;SDS011;40730;53.068;6.572;2022-10-16T14:20:47;6.95;;;0.43;;
54831;SDS011;40730;53.068;6.572;2022-10-16T14:23:28;11.98;;;0.77;;
54831;SDS011;40730;53.068;6.572;2022-10-16T14:28:39;10.27;;;1.13;;
54831;SDS011;40730;53.068;6.572;2022-10-16T14:33:48;8.82;;;0.95;;
54831;SDS011;40730;53.068;6.572;2022-10-16T14:36:14;7.40;;;0.55;;
54831;SDS011;40730;53.068;6.572;2022-10-16T14:39:05;4.43;;;0.30;;
54831;SDS011;40730;53.068;6.572;2022-10-16T14:41:31;6.20;;;0.88;;
54831;SDS011;40730;53.068;6.572;2022-10-16T14:44:05;8.80;;;0.55;;
54831;SDS011;40730;53.068;6.572;2022-10-16T14:46:38;8.75;;;0.75;;
54831;SDS011;40730;53.068;6.572;2022-10-16T14:51:40;10.52;;;1.00;;
54831;SDS011;40730;53.068;6.572;2022-10-16T14:54:07;6.88;;;0.32;;
54831;SDS011;40730;53.068;6.572;2022-10-16T14:56:40;9.57;;;0.68;;
54831;SDS011;40730;53.068;6.572;2022-10-16T14:59:32;9.55;;;0.43;;
54831;SDS011;40730;53.068;6.572;2022-10-16T15:02:02;8.57;;;1.10;;
54831;SDS011;40730;53.068;6.572;2022-10-16T15:04:53;8.15;;;0.40;;
54831;SDS011;40730;53.068;6.572;2022-10-16T15:07:19;11.30;;;1.00;;
54831;SDS011;40730;53.068;6.572;2022-10-16T15:09:45;8.18;;;0.80;;
54831;SDS011;40730;53.068;6.572;2022-10-16T15:12:11;14.10;;;0.65;;
54831;SDS011;40730;53.068;6.572;2022-10-16T15:14:37;9.85;;;0.60;;
54831;SDS011;40730;53.068;6.572;2022-10-16T15:17:03;14.35;;;0.63;;
54831;SDS011;40730;53.068;6.572;2022-10-16T15:19:29;9.05;;;0.65;;
54831;SDS011;40730;53.068;6.572;2022-10-16T15:21:54;12.63;;;1.55;;
54831;SDS011;40730;53.068;6.572;2022-10-16T15:24:20;7.40;;;0.40;;
54831;SDS011;40730;53.068;6.572;2022-10-16T15:26:46;11.82;;;0.80;;
54831;SDS011;40730;53.068;6.572;2022-10-16T15:29:12;6.05;;;0.30;;
54831;SDS011;40730;53.068;6.572;2022-10-16T15:31:38;7.93;;;0.43;;
54831;SDS011;40730;53.068;6.572;2022-10-16T15:34:08;7.00;;;0.60;;
54831;SDS011;40730;53.068;6.572;2022-10-16T15:36:35;8.90;;;0.70;;
54831;SDS011;40730;53.068;6.572;2022-10-16T15:39:02;7.65;;;0.80;;
54831;SDS011;40730;53.068;6.572;2022-10-16T15:41:29;8.15;;;0.55;;
54831;SDS011;40730;53.068;6.572;2022-10-16T15:43:55;6.72;;;0.50;;
54831;SDS011;40730;53.068;6.572;2022-10-16T15:46:21;7.03;;;0.50;;
54831;SDS011;40730;53.068;6.572;2022-10-16T15:48:49;6.70;;;0.40;;
54831;SDS011;40730;53.068;6.572;2022-10-16T15:51:15;5.57;;;0.73;;
54831;SDS011;40730;53.068;6.572;2022-10-16T15:53:41;6.25;;;0.40;;
54831;SDS011;40730;53.068;6.572;2022-10-16T15:56:09;9.40;;;0.55;;
54831;SDS011;40730;53.068;6.572;2022-10-16T15:58:36;5.47;;;0.90;;
54831;SDS011;40730;53.068;6.572;2022-10-16T16:01:02;7.85;;;0.82;;
54831;SDS011;40730;53.068;6.572;2022-10-16T16:03:29;8.10;;;0.90;;
54831;SDS011;40730;53.068;6.572;2022-10-16T16:05:55;10.52;;;1.25;;
54831;SDS011;40730;53.068;6.572;2022-10-16T16:08:21;5.50;;;0.30;;
54831;SDS011;40730;53.068;6.572;2022-10-16T16:10:57;12.70;;;0.70;;
54831;SDS011;40730;53.068;6.572;2022-10-16T16:13:27;5.85;;;1.00;;
54831;SDS011;40730;53.068;6.572;2022-10-16T16:15:52;6.22;;;0.88;;
54831;SDS011;40730;53.068;6.572;2022-10-16T16:18:18;5.75;;;0.77;;
54831;SDS011;40730;53.068;6.572;2022-10-16T16:20:44;7.90;;;0.93;;
54831;SDS011;40730;53.068;6.572;2022-10-16T16:23:09;7.05;;;1.33;;
54831;SDS011;40730;53.068;6.572;2022-10-16T16:25:35;13.18;;;0.98;;
54831;SDS011;40730;53.068;6.572;2022-10-16T16:28:01;9.70;;;1.42;;
54831;SDS011;40730;53.068;6.572;2022-10-16T16:30:27;32.25;;;16.27;;
54831;SDS011;40730;53.068;6.572;2022-10-16T16:32:52;11.70;;;4.10;;
54831;SDS011;40730;53.068;6.572;2022-10-16T16:35:18;13.57;;;2.47;;
54831;SDS011;40730;53.068;6.572;2022-10-16T16:37:43;13.23;;;2.55;;
54831;SDS011;40730;53.068;6.572;2022-10-16T16:40:09;12.95;;;5.13;;
54831;SDS011;40730;53.068;6.572;2022-10-16T16:42:34;17.73;;;5.05;;
54831;SDS011;40730;53.068;6.572;2022-10-16T16:45:00;11.23;;;3.13;;
54831;SDS011;40730;53.068;6.572;2022-10-16T16:47:26;12.07;;;4.22;;
54831;SDS011;40730;53.068;6.572;2022-10-16T16:49:51;18.05;;;7.63;;
54831;SDS011;40730;53.068;6.572;2022-10-16T16:52:17;18.65;;;7.75;;
54831;SDS011;40730;53.068;6.572;2022-10-16T16:54:42;14.63;;;4.57;;
54831;SDS011;40730;53.068;6.572;2022-10-16T16:57:10;25.23;;;10.30;;
54831;SDS011;40730;53.068;6.572;2022-10-16T16:59:35;17.38;;;6.20;;
54831;SDS011;40730;53.068;6.572;2022-10-16T17:02:01;24.15;;;8.85;;
54831;SDS011;40730;53.068;6.572;2022-10-16T17:04:28;22.58;;;8.63;;
54831;SDS011;40730;53.068;6.572;2022-10-16T17:06:53;22.65;;;8.80;;
54831;SDS011;40730;53.068;6.572;2022-10-16T17:09:20;22.63;;;10.93;;
54831;SDS011;40730;53.068;6.572;2022-10-16T17:11:46;22.02;;;8.77;;
54831;SDS011;40730;53.068;6.572;2022-10-16T17:14:13;19.30;;;10.32;;
54831;SDS011;40730;53.068;6.572;2022-10-16T17:16:39;20.98;;;8.60;;
54831;SDS011;40730;53.068;6.572;2022-10-16T17:19:10;18.85;;;5.88;;
54831;SDS011;40730;53.068;6.572;2022-10-16T17:21:39;17.27;;;6.78;;